Terminal Aerodrome Forecast
Issued by NWS Sterling, VA

Current Version | Previous Version | Graphics & Text | Print | Product List | Glossary On
Versions: 1 2 3 4 5 6 7 8 9 10 11 12 13
029
FTUS41 KLWX 200536
TAFMRB
TAF
KMRB 200536Z 2006/2106 32007KT P6SM SCT040
     FM201000 VRB03KT P6SM SCT050
     FM201300 VRB03KT P6SM SCT200
     FM202000 24005KT P6SM BKN090
     FM202300 14004KT P6SM OVC070
     FM210300 VRB03KT 5SM -SHRA BR OVC050=

USA.gov is the U.S. government's official web portal to all federal, state and local government web resources and services.